Terminal Aerodrome Forecast
Issued by NWS

Home | Current Version | Previous Version | Text Only | Print | Product List | Glossary Off
Versions: 1 2 3 4 5 6 7 8 9 10 11 12 13 14

000
FTUS43 KIWX 301700
TAFSBN
TAF
KSBN 301734Z 3018/0118 36008KT P6SM OVC020
     FM302000 35005KT P6SM BKN020
     FM010900 VRB03KT 5SM BR BKN020
     FM011400 12005KT P6SM SCT025=

USA.gov is the U.S. government's official web portal to all federal, state and local government web resources and services.